Time,TemperatureF,DewpointF,PressureIn,WindDirection,WindDirectionDegrees,WindSpeedMPH,WindSpeedGustMPH,Humidity,HourlyPrecipIn,Conditions,Clouds,dailyrainin,SoftwareType,DateUTC
2013-02-18 00:12:00,44.2,42.0,30.00,SSE,158,0.0,-999.0,90,-99.99,,,0.00,weatherlink.com 1.10,2013-02-18 08:12:00,
2013-02-18 00:28:00,45.4,43.0,30.01,ESE,109,0.0,-999.0,91,-99.99,,,0.00,weatherlink.com 1.10,2013-02-18 08:28:00,
2013-02-18 00:43:00,46.2,44.0,30.01,West,274,1.0,-999.0,90,-99.99,,,0.00,weatherlink.com 1.10,2013-02-18 08:43:00,
2013-02-18 00:58:00,46.7,44.0,30.01,SSE,167,0.0,-999.0,90,-99.99,,,0.00,weatherlink.com 1.10,2013-02-18 08:58:00,
2013-02-18 01:13:00,46.7,44.0,30.01,ENE,76,0.0,-999.0,89,-99.99,,,0.00,weatherlink.com 1.10,2013-02-18 09:13:00,
2013-02-18 01:28:00,46.8,44.0,30.01,SE,140,0.0,-999.0,90,-99.99,,,0.00,weatherlink.com 1.10,2013-02-18 09:28:00,
2013-02-18 01:44:00,47.0,44.0,30.01,SSE,157,0.0,-999.0,90,-99.99,,,0.00,weatherlink.com 1.10,2013-02-18 09:44:00,
2013-02-18 01:58:00,47.0,44.0,30.01,South,175,1.0,-999.0,90,-99.99,,,0.00,weatherlink.com 1.10,2013-02-18 09:58:00,
2013-02-18 02:13:00,47.0,44.0,30.01,South,173,0.0,-999.0,90,-99.99,,,0.00,weatherlink.com 1.10,2013-02-18 10:13:00,
2013-02-18 02:28:00,47.3,45.0,30.00,SSE,166,0.0,-999.0,90,-99.99,,,0.00,weatherlink.com 1.10,2013-02-18 10:28:00,
2013-02-18 02:43:00,47.3,44.0,30.00,SSE,160,2.0,-999.0,89,-99.99,,,0.00,weatherlink.com 1.10,2013-02-18 10:43:00,
2013-02-18 02:58:00,47.0,44.0,30.00,SSE,159,1.0,-999.0,89,-99.99,,,0.00,weatherlink.com 1.10,2013-02-18 10:58:00,
2013-02-18 03:43:00,47.0,44.0,29.98,SW,225,0.0,-999.0,88,-99.99,,,0.00,weatherlink.com 1.10,2013-02-18 11:43:00,
2013-02-18 03:58:00,46.8,44.0,29.98,WSW,243,0.0,-999.0,89,-99.99,,,0.00,weatherlink.com 1.10,2013-02-18 11:58:00,
2013-02-18 04:13:00,47.1,44.0,29.98,SW,228,0.0,-999.0,88,-99.99,,,0.00,weatherlink.com 1.10,2013-02-18 12:13:00,
2013-02-18 04:28:00,47.0,44.0,29.99,SE,143,0.0,-999.0,88,-99.99,,,0.00,weatherlink.com 1.10,2013-02-18 12:28:00,
2013-02-18 04:43:00,47.1,44.0,29.99,SSW,208,0.0,-999.0,87,-99.99,,,0.00,weatherlink.com 1.10,2013-02-18 12:43:00,
2013-02-18 04:58:00,47.1,43.0,29.99,SSW,202,1.0,-999.0,86,-99.99,,,0.00,weatherlink.com 1.10,2013-02-18 12:58:00,
2013-02-18 05:13:00,47.3,43.0,29.99,SE,146,0.0,-999.0,85,-99.99,,,0.00,weatherlink.com 1.10,2013-02-18 13:13:00,
2013-02-18 05:28:00,47.4,43.0,30.00,SSE,167,0.0,-999.0,84,-99.99,,,0.00,weatherlink.com 1.10,2013-02-18 13:28:00,
2013-02-18 05:43:00,47.4,43.0,30.00,SSW,200,1.0,-999.0,83,-99.99,,,0.00,weatherlink.com 1.10,2013-02-18 13:43:00,
2013-02-18 05:58:00,47.4,42.0,30.00,SSW,193,1.0,-999.0,82,-99.99,,,0.00,weatherlink.com 1.10,2013-02-18 13:58:00,
2013-02-18 06:13:00,47.4,42.0,30.00,South,179,0.0,-999.0,82,-99.99,,,0.00,weatherlink.com 1.10,2013-02-18 14:13:00,
2013-02-18 06:28:00,47.6,42.0,30.00,SW,234,0.0,-999.0,82,-99.99,,,0.00,weatherlink.com 1.10,2013-02-18 14:28:00,
2013-02-18 06:43:00,47.6,42.0,30.00,SW,229,0.0,-999.0,81,-99.99,,,0.00,weatherlink.com 1.10,2013-02-18 14:43:00,
2013-02-18 06:58:00,47.6,42.0,30.00,SSW,203,2.0,-999.0,80,-99.99,,,0.00,weatherlink.com 1.10,2013-02-18 14:58:00,
2013-02-18 07:13:00,47.6,42.0,30.00,SW,232,3.0,-999.0,80,-99.99,,,0.00,weatherlink.com 1.10,2013-02-18 15:13:00,
2013-02-18 07:28:00,47.6,41.0,30.00,SSW,209,0.0,-999.0,79,-99.99,,,0.00,weatherlink.com 1.10,2013-02-18 15:28:00,
2013-02-18 07:43:00,47.6,41.0,30.01,SSW,210,1.0,-999.0,78,-99.99,,,0.00,weatherlink.com 1.10,2013-02-18 15:43:00,
2013-02-18 07:58:00,47.6,41.0,30.01,WSW,254,1.0,-999.0,77,-99.99,,,0.00,weatherlink.com 1.10,2013-02-18 15:58:00,
2013-02-18 08:13:00,47.6,41.0,30.01,South,191,2.0,-999.0,77,-99.99,,,0.00,weatherlink.com 1.10,2013-02-18 16:13:00,
2013-02-18 08:28:00,47.9,41.0,30.02,SSW,199,1.0,-999.0,78,-99.99,,,0.00,weatherlink.com 1.10,2013-02-18 16:28:00,
2013-02-18 08:43:00,48.2,41.0,30.03,SW,225,2.0,-999.0,77,-99.99,,,0.00,weatherlink.com 1.10,2013-02-18 16:43:00,
2013-02-18 08:58:00,48.5,41.0,30.03,SSE,157,0.0,-999.0,76,-99.99,,,0.00,weatherlink.com 1.10,2013-02-18 16:58:00,
2013-02-18 09:14:00,48.6,41.0,30.03,SSE,153,0.0,-999.0,75,-99.99,,,0.00,weatherlink.com 1.10,2013-02-18 17:14:00,
2013-02-18 09:29:00,48.8,41.0,30.04,South,173,2.0,-999.0,74,-99.99,,,0.00,weatherlink.com 1.10,2013-02-18 17:29:00,
2013-02-18 09:43:00,49.4,40.0,30.03,SW,227,1.0,-999.0,71,-99.99,,,0.00,weatherlink.com 1.10,2013-02-18 17:43:00,
2013-02-18 09:58:00,49.6,40.0,30.03,SW,232,0.0,-999.0,70,-99.99,,,0.00,weatherlink.com 1.10,2013-02-18 17:58:00,
2013-02-18 10:13:00,49.8,40.0,30.03,South,171,3.0,-999.0,69,-99.99,,,0.00,weatherlink.com 1.10,2013-02-18 18:13:00,
2013-02-18 10:29:00,49.8,40.0,30.04,SW,219,1.0,-999.0,68,-99.99,,,0.00,weatherlink.com 1.10,2013-02-18 18:29:00,
2013-02-18 10:43:00,50.5,39.0,30.03,SW,229,4.0,-999.0,66,-99.99,,,0.00,weatherlink.com 1.10,2013-02-18 18:43:00,
2013-02-18 10:59:00,50.4,41.0,30.03,South,178,1.0,-999.0,70,-99.99,,,0.00,weatherlink.com 1.10,2013-02-18 18:59:00,
2013-02-18 11:14:00,50.8,41.0,30.03,SW,215,1.0,-999.0,69,-99.99,,,0.00,weatherlink.com 1.10,2013-02-18 19:14:00,
2013-02-18 11:29:00,51.0,41.0,30.03,SW,230,0.0,-999.0,68,-99.99,,,0.00,weatherlink.com 1.10,2013-02-18 19:29:00,
2013-02-18 11:44:00,51.3,41.0,30.03,SW,217,0.0,-999.0,67,-99.99,,,0.00,weatherlink.com 1.10,2013-02-18 19:44:00,
2013-02-18 11:59:00,52.5,41.0,30.03,WSW,246,6.0,-999.0,65,-99.99,,,0.00,weatherlink.com 1.10,2013-02-18 19:59:00,
2013-02-18 12:14:00,52.0,41.0,30.02,SE,146,4.0,-999.0,66,-99.99,,,0.00,weatherlink.com 1.10,2013-02-18 20:14:00,
2013-02-18 12:29:00,51.9,41.0,30.02,SW,227,0.0,-999.0,67,-99.99,,,0.00,weatherlink.com 1.10,2013-02-18 20:29:00,
2013-02-18 12:44:00,53.5,40.0,30.00,SW,222,1.0,-999.0,61,-99.99,,,0.00,weatherlink.com 1.10,2013-02-18 20:44:00,
2013-02-18 13:00:00,53.9,40.0,29.99,WSW,242,2.0,-999.0,60,-99.99,,,0.00,weatherlink.com 1.10,2013-02-18 21:00:00,
2013-02-18 13:14:00,54.7,40.0,29.99,WSW,244,0.0,-999.0,58,-99.99,,,0.00,weatherlink.com 1.10,2013-02-18 21:14:00,
2013-02-18 13:29:00,54.7,40.0,29.98,West,271,0.0,-999.0,57,-99.99,,,0.00,weatherlink.com 1.10,2013-02-18 21:29:00,
2013-02-18 13:44:00,55.3,39.0,29.98,SW,229,6.0,-999.0,54,-99.99,,,0.00,weatherlink.com 1.10,2013-02-18 21:44:00,
2013-02-18 13:59:00,53.6,39.0,29.98,East,94,3.0,-999.0,59,-99.99,,,0.00,weatherlink.com 1.10,2013-02-18 21:59:00,
2013-02-18 14:14:00,53.5,40.0,29.98,SSW,208,1.0,-999.0,60,-99.99,,,0.00,weatherlink.com 1.10,2013-02-18 22:14:00,
2013-02-18 14:29:00,53.5,40.0,29.98,SW,227,2.0,-999.0,60,-99.99,,,0.00,weatherlink.com 1.10,2013-02-18 22:29:00,
2013-02-18 14:44:00,53.3,39.0,29.98,WSW,250,3.0,-999.0,59,-99.99,,,0.00,weatherlink.com 1.10,2013-02-18 22:44:00,
2013-02-18 14:59:00,52.8,39.0,29.98,ESE,111,0.0,-999.0,60,-99.99,,,0.00,weatherlink.com 1.10,2013-02-18 22:59:00,
2013-02-18 15:14:00,53.1,38.0,29.98,SW,227,7.0,-999.0,58,-99.99,,,0.00,weatherlink.com 1.10,2013-02-18 23:14:00,
2013-02-18 15:29:00,52.6,38.0,29.98,SW,227,0.0,-999.0,59,-99.99,,,0.00,weatherlink.com 1.10,2013-02-18 23:29:00,
2013-02-18 15:44:00,52.5,38.0,29.97,WSW,247,0.0,-999.0,59,-99.99,,,0.00,weatherlink.com 1.10,2013-02-18 23:44:00,
2013-02-18 15:59:00,52.6,38.0,29.98,SSE,150,7.0,-999.0,59,-99.99,,,0.00,weatherlink.com 1.10,2013-02-18 23:59:00,
2013-02-18 16:15:00,51.4,38.0,29.98,WSW,254,2.0,-999.0,60,-99.99,,,0.00,weatherlink.com 1.10,2013-02-19 00:15:00,
2013-02-18 16:30:00,51.1,38.0,29.98,SSW,207,1.0,-999.0,61,-99.99,,,0.00,weatherlink.com 1.10,2013-02-19 00:30:00,
2013-02-18 16:45:00,50.7,38.0,29.98,SSW,203,3.0,-999.0,61,-99.99,,,0.00,weatherlink.com 1.10,2013-02-19 00:45:00,
2013-02-18 17:01:00,50.1,38.0,29.97,SW,217,3.0,-999.0,64,-99.99,,,0.00,weatherlink.com 1.10,2013-02-19 01:01:00,
2013-02-18 17:15:00,50.1,39.0,29.97,SW,219,0.0,-999.0,66,-99.99,,,0.00,weatherlink.com 1.10,2013-02-19 01:15:00,
2013-02-18 17:31:00,49.6,38.0,29.97,SW,231,0.0,-999.0,65,-99.99,,,0.00,weatherlink.com 1.10,2013-02-19 01:31:00,
2013-02-18 17:45:00,49.4,38.0,29.97,NE,48,2.0,-999.0,64,-99.99,,,0.00,weatherlink.com 1.10,2013-02-19 01:45:00,
2013-02-18 18:01:00,49.2,38.0,29.97,SW,223,0.0,-999.0,65,-99.99,,,0.00,weatherlink.com 1.10,2013-02-19 02:01:00,
2013-02-18 18:30:00,48.9,38.0,29.97,SW,234,0.0,-999.0,67,-99.99,,,0.00,weatherlink.com 1.10,2013-02-19 02:30:00,
2013-02-18 18:45:00,48.8,39.0,29.97,SW,214,0.0,-999.0,68,-99.99,,,0.00,weatherlink.com 1.10,2013-02-19 02:45:00,
2013-02-18 19:00:00,48.9,39.0,29.97,SSW,209,1.0,-999.0,69,-99.99,,,0.00,weatherlink.com 1.10,2013-02-19 03:00:00,
2013-02-18 19:15:00,48.9,39.0,29.97,SSW,198,0.0,-999.0,70,-99.99,,,0.00,weatherlink.com 1.10,2013-02-19 03:15:00,
2013-02-18 19:30:00,48.8,39.0,29.97,SW,218,1.0,-999.0,69,-99.99,,,0.00,weatherlink.com 1.10,2013-02-19 03:30:00,
2013-02-18 19:46:00,48.8,39.0,29.97,SSW,211,0.0,-999.0,70,-99.99,,,0.00,weatherlink.com 1.10,2013-02-19 03:46:00,
2013-02-18 20:00:00,48.8,40.0,29.96,South,189,1.0,-999.0,71,-99.99,,,0.00,weatherlink.com 1.10,2013-02-19 04:00:00,
2013-02-18 20:15:00,48.6,39.0,29.97,West,261,0.0,-999.0,70,-99.99,,,0.00,weatherlink.com 1.10,2013-02-19 04:15:00,
2013-02-18 20:30:00,48.5,39.0,29.97,WSW,251,0.0,-999.0,69,-99.99,,,0.00,weatherlink.com 1.10,2013-02-19 04:30:00,
2013-02-18 21:01:00,48.3,39.0,29.97,SE,146,0.0,-999.0,69,-99.99,,,0.00,weatherlink.com 1.10,2013-02-19 05:01:00,
2013-02-18 21:15:00,48.3,38.0,29.98,WSW,258,0.0,-999.0,67,-99.99,,,0.00,weatherlink.com 1.10,2013-02-19 05:15:00,
2013-02-18 21:30:00,48.2,37.0,29.98,West,280,0.0,-999.0,65,-99.99,,,0.00,weatherlink.com 1.10,2013-02-19 05:30:00,
2013-02-18 21:45:00,48.2,37.0,29.98,West,267,0.0,-999.0,66,-99.99,,,0.00,weatherlink.com 1.10,2013-02-19 05:45:00,
2013-02-18 22:01:00,48.0,37.0,29.98,North,351,0.0,-999.0,65,-99.99,,,0.00,weatherlink.com 1.10,2013-02-19 06:01:00,
2013-02-18 22:15:00,48.0,37.0,29.98,West,271,2.0,-999.0,65,-99.99,,,0.00,weatherlink.com 1.10,2013-02-19 06:15:00,
2013-02-18 22:31:00,47.7,36.0,29.97,WNW,299,0.0,-999.0,65,-99.99,,,0.00,weatherlink.com 1.10,2013-02-19 06:31:00,
2013-02-18 22:46:00,47.4,36.0,29.97,SSW,198,0.0,-999.0,65,-99.99,,,0.00,weatherlink.com 1.10,2013-02-19 06:46:00,
2013-02-18 23:00:00,47.0,36.0,29.97,SW,227,2.0,-999.0,66,-99.99,,,0.00,weatherlink.com 1.10,2013-02-19 07:00:00,
2013-02-18 23:15:00,46.7,36.0,29.97,WNW,296,0.0,-999.0,66,-99.99,,,0.00,weatherlink.com 1.10,2013-02-19 07:15:00,
2013-02-18 23:30:00,46.5,36.0,29.97,SSW,209,0.0,-999.0,66,-99.99,,,0.00,weatherlink.com 1.10,2013-02-19 07:30:00,
2013-02-18 23:46:00,46.8,36.0,29.97,SSW,198,0.0,-999.0,66,-99.99,,,0.00,weatherlink.com 1.10,2013-02-19 07:46:00,